Terminal Aerodrome Forecast
Issued by NWS

Home | Current Version | Previous Version | Text Only | Print | Product List | Glossary On
Versions: 1 2 3 4 5 6 7 8 9 10 11 12
000
FTUS45 KREV 191728
TAFMMH
TAF
KMMH 191728Z 1918/2018 29015G25KT P6SM VCSH SCT050 BKN070
     FM200300 27012G22KT P6SM SCT050
     FM201000 30008KT P6SM SCT050=

USA.gov is the U.S. government's official web portal to all federal, state and local government web resources and services.